sensor_id;sensor_type;location;lat;lon;timestamp;P1;durP1;ratioP1;P2;durP2;ratioP2
50900;SDS011;36879;51.416;6.678;2023-03-13T00:01:49;23.63;;;4.57;;
50900;SDS011;36879;51.416;6.678;2023-03-13T00:04:15;16.65;;;4.60;;
50900;SDS011;36879;51.416;6.678;2023-03-13T00:06:41;18.40;;;5.15;;
50900;SDS011;36879;51.416;6.678;2023-03-13T00:09:09;13.55;;;3.90;;
50900;SDS011;36879;51.416;6.678;2023-03-13T00:11:35;15.43;;;4.07;;
50900;SDS011;36879;51.416;6.678;2023-03-13T00:14:03;10.85;;;3.45;;
50900;SDS011;36879;51.416;6.678;2023-03-13T00:16:29;19.02;;;4.63;;
50900;SDS011;36879;51.416;6.678;2023-03-13T00:18:56;14.57;;;4.50;;
50900;SDS011;36879;51.416;6.678;2023-03-13T00:21:23;21.73;;;4.55;;
50900;SDS011;36879;51.416;6.678;2023-03-13T00:23:50;12.25;;;4.78;;
50900;SDS011;36879;51.416;6.678;2023-03-13T00:26:17;15.98;;;4.03;;
50900;SDS011;36879;51.416;6.678;2023-03-13T00:28:43;19.58;;;5.28;;
50900;SDS011;36879;51.416;6.678;2023-03-13T00:33:36;11.70;;;3.13;;
50900;SDS011;36879;51.416;6.678;2023-03-13T00:36:03;11.05;;;2.78;;
50900;SDS011;36879;51.416;6.678;2023-03-13T00:38:30;16.85;;;3.65;;
50900;SDS011;36879;51.416;6.678;2023-03-13T00:41:00;13.02;;;4.97;;
50900;SDS011;36879;51.416;6.678;2023-03-13T00:43:26;11.75;;;3.72;;
50900;SDS011;36879;51.416;6.678;2023-03-13T00:45:52;22.90;;;4.57;;
50900;SDS011;36879;51.416;6.678;2023-03-13T00:48:18;19.35;;;4.32;;
50900;SDS011;36879;51.416;6.678;2023-03-13T00:50:44;11.57;;;3.47;;
50900;SDS011;36879;51.416;6.678;2023-03-13T00:53:10;19.15;;;3.88;;
50900;SDS011;36879;51.416;6.678;2023-03-13T00:55:36;21.27;;;4.35;;
50900;SDS011;36879;51.416;6.678;2023-03-13T00:58:02;18.73;;;4.45;;
50900;SDS011;36879;51.416;6.678;2023-03-13T01:00:28;15.50;;;3.20;;
50900;SDS011;36879;51.416;6.678;2023-03-13T01:02:54;13.15;;;2.92;;
50900;SDS011;36879;51.416;6.678;2023-03-13T01:05:20;15.68;;;4.60;;
50900;SDS011;36879;51.416;6.678;2023-03-13T01:07:46;15.18;;;4.15;;
50900;SDS011;36879;51.416;6.678;2023-03-13T01:10:11;15.88;;;4.07;;
50900;SDS011;36879;51.416;6.678;2023-03-13T01:12:37;13.38;;;3.83;;
50900;SDS011;36879;51.416;6.678;2023-03-13T01:15:04;15.02;;;3.65;;
50900;SDS011;36879;51.416;6.678;2023-03-13T01:17:30;17.77;;;4.53;;
50900;SDS011;36879;51.416;6.678;2023-03-13T01:19:56;18.92;;;5.43;;
50900;SDS011;36879;51.416;6.678;2023-03-13T01:22:22;18.73;;;4.85;;
50900;SDS011;36879;51.416;6.678;2023-03-13T01:24:48;20.33;;;5.00;;
50900;SDS011;36879;51.416;6.678;2023-03-13T01:27:16;15.98;;;4.05;;
50900;SDS011;36879;51.416;6.678;2023-03-13T01:29:43;22.30;;;6.07;;
50900;SDS011;36879;51.416;6.678;2023-03-13T01:32:09;17.60;;;6.35;;
50900;SDS011;36879;51.416;6.678;2023-03-13T01:34:35;20.73;;;3.90;;
50900;SDS011;36879;51.416;6.678;2023-03-13T01:37:01;15.13;;;4.68;;
50900;SDS011;36879;51.416;6.678;2023-03-13T01:39:27;15.35;;;4.15;;
50900;SDS011;36879;51.416;6.678;2023-03-13T01:41:53;15.98;;;4.30;;
50900;SDS011;36879;51.416;6.678;2023-03-13T01:44:21;16.20;;;5.30;;
50900;SDS011;36879;51.416;6.678;2023-03-13T01:46:47;19.40;;;5.22;;
50900;SDS011;36879;51.416;6.678;2023-03-13T01:51:43;22.23;;;4.85;;
50900;SDS011;36879;51.416;6.678;2023-03-13T01:59:12;22.13;;;6.45;;
50900;SDS011;36879;51.416;6.678;2023-03-13T02:01:39;17.48;;;6.07;;
50900;SDS011;36879;51.416;6.678;2023-03-13T02:04:06;18.77;;;7.00;;
50900;SDS011;36879;51.416;6.678;2023-03-13T02:06:32;14.50;;;6.60;;
50900;SDS011;36879;51.416;6.678;2023-03-13T02:09:02;19.88;;;6.88;;
50900;SDS011;36879;51.416;6.678;2023-03-13T02:13:58;23.73;;;6.63;;
50900;SDS011;36879;51.416;6.678;2023-03-13T02:16:25;25.83;;;7.63;;
50900;SDS011;36879;51.416;6.678;2023-03-13T02:18:51;14.55;;;5.88;;
50900;SDS011;36879;51.416;6.678;2023-03-13T02:23:57;19.67;;;6.28;;
50900;SDS011;36879;51.416;6.678;2023-03-13T02:26:25;21.42;;;5.55;;
50900;SDS011;36879;51.416;6.678;2023-03-13T02:28:51;18.60;;;6.97;;
50900;SDS011;36879;51.416;6.678;2023-03-13T02:31:17;25.55;;;6.63;;
50900;SDS011;36879;51.416;6.678;2023-03-13T02:33:43;18.67;;;5.43;;
50900;SDS011;36879;51.416;6.678;2023-03-13T02:36:10;18.23;;;6.80;;
50900;SDS011;36879;51.416;6.678;2023-03-13T02:38:38;13.93;;;6.03;;
50900;SDS011;36879;51.416;6.678;2023-03-13T02:41:07;16.15;;;5.55;;
50900;SDS011;36879;51.416;6.678;2023-03-13T02:43:34;17.77;;;7.25;;
50900;SDS011;36879;51.416;6.678;2023-03-13T02:46:11;28.20;;;7.95;;
50900;SDS011;36879;51.416;6.678;2023-03-13T02:48:38;18.40;;;6.75;;
50900;SDS011;36879;51.416;6.678;2023-03-13T02:51:07;16.98;;;6.30;;
50900;SDS011;36879;51.416;6.678;2023-03-13T02:53:35;16.13;;;6.38;;
50900;SDS011;36879;51.416;6.678;2023-03-13T02:56:01;19.15;;;5.53;;
50900;SDS011;36879;51.416;6.678;2023-03-13T02:58:34;11.50;;;4.53;;
50900;SDS011;36879;51.416;6.678;2023-03-13T03:01:00;10.07;;;3.60;;
50900;SDS011;36879;51.416;6.678;2023-03-13T03:03:31;15.63;;;3.35;;
50900;SDS011;36879;51.416;6.678;2023-03-13T03:05:57;13.07;;;3.30;;
50900;SDS011;36879;51.416;6.678;2023-03-13T03:08:23;13.73;;;3.53;;
50900;SDS011;36879;51.416;6.678;2023-03-13T03:10:49;14.82;;;4.18;;
50900;SDS011;36879;51.416;6.678;2023-03-13T03:13:15;8.25;;;3.55;;
50900;SDS011;36879;51.416;6.678;2023-03-13T03:15:41;11.77;;;4.82;;
50900;SDS011;36879;51.416;6.678;2023-03-13T03:18:07;8.70;;;4.07;;
50900;SDS011;36879;51.416;6.678;2023-03-13T03:20:33;14.15;;;3.50;;
50900;SDS011;36879;51.416;6.678;2023-03-13T03:22:59;9.48;;;3.88;;
50900;SDS011;36879;51.416;6.678;2023-03-13T03:25:25;9.32;;;2.92;;
50900;SDS011;36879;51.416;6.678;2023-03-13T03:27:51;8.18;;;2.65;;
50900;SDS011;36879;51.416;6.678;2023-03-13T03:30:17;5.97;;;2.05;;
50900;SDS011;36879;51.416;6.678;2023-03-13T03:32:43;11.20;;;3.67;;
50900;SDS011;36879;51.416;6.678;2023-03-13T03:35:09;5.95;;;2.33;;
50900;SDS011;36879;51.416;6.678;2023-03-13T03:37:35;8.82;;;1.95;;
50900;SDS011;36879;51.416;6.678;2023-03-13T03:40:01;5.10;;;1.85;;
50900;SDS011;36879;51.416;6.678;2023-03-13T03:42:29;5.22;;;2.55;;
50900;SDS011;36879;51.416;6.678;2023-03-13T03:44:55;8.75;;;2.45;;
50900;SDS011;36879;51.416;6.678;2023-03-13T03:47:21;7.70;;;2.63;;
50900;SDS011;36879;51.416;6.678;2023-03-13T03:49:47;13.05;;;2.38;;
50900;SDS011;36879;51.416;6.678;2023-03-13T03:52:13;6.70;;;2.53;;
50900;SDS011;36879;51.416;6.678;2023-03-13T03:54:39;9.63;;;2.55;;
50900;SDS011;36879;51.416;6.678;2023-03-13T03:57:05;6.07;;;3.10;;
50900;SDS011;36879;51.416;6.678;2023-03-13T03:59:31;3.70;;;2.35;;
50900;SDS011;36879;51.416;6.678;2023-03-13T04:01:57;6.80;;;3.40;;
50900;SDS011;36879;51.416;6.678;2023-03-13T04:04:23;7.93;;;2.90;;
50900;SDS011;36879;51.416;6.678;2023-03-13T04:06:49;6.57;;;3.03;;
50900;SDS011;36879;51.416;6.678;2023-03-13T04:09:15;7.68;;;3.03;;
50900;SDS011;36879;51.416;6.678;2023-03-13T04:11:41;6.60;;;3.45;;
50900;SDS011;36879;51.416;6.678;2023-03-13T04:14:07;5.60;;;2.40;;
50900;SDS011;36879;51.416;6.678;2023-03-13T04:16:33;4.35;;;2.45;;
50900;SDS011;36879;51.416;6.678;2023-03-13T04:18:59;6.43;;;3.00;;
50900;SDS011;36879;51.416;6.678;2023-03-13T04:21:25;6.22;;;3.13;;
50900;SDS011;36879;51.416;6.678;2023-03-13T04:23:51;8.48;;;3.67;;
50900;SDS011;36879;51.416;6.678;2023-03-13T04:26:17;6.18;;;3.60;;
50900;SDS011;36879;51.416;6.678;2023-03-13T04:28:43;5.70;;;3.00;;
50900;SDS011;36879;51.416;6.678;2023-03-13T04:31:09;5.93;;;2.88;;
50900;SDS011;36879;51.416;6.678;2023-03-13T04:33:35;3.40;;;1.95;;
50900;SDS011;36879;51.416;6.678;2023-03-13T04:36:01;4.40;;;2.53;;
50900;SDS011;36879;51.416;6.678;2023-03-13T04:38:27;4.85;;;2.78;;
50900;SDS011;36879;51.416;6.678;2023-03-13T04:40:53;4.88;;;3.10;;
50900;SDS011;36879;51.416;6.678;2023-03-13T04:43:19;4.43;;;2.80;;
50900;SDS011;36879;51.416;6.678;2023-03-13T04:45:45;3.75;;;2.08;;
50900;SDS011;36879;51.416;6.678;2023-03-13T04:48:11;3.25;;;2.20;;
50900;SDS011;36879;51.416;6.678;2023-03-13T04:50:38;4.82;;;3.10;;
50900;SDS011;36879;51.416;6.678;2023-03-13T04:53:04;3.47;;;2.10;;
50900;SDS011;36879;51.416;6.678;2023-03-13T04:55:30;3.67;;;2.40;;
50900;SDS011;36879;51.416;6.678;2023-03-13T04:57:56;4.50;;;2.65;;
50900;SDS011;36879;51.416;6.678;2023-03-13T05:00:22;4.50;;;2.60;;
50900;SDS011;36879;51.416;6.678;2023-03-13T05:02:48;5.45;;;2.92;;
50900;SDS011;36879;51.416;6.678;2023-03-13T05:05:14;4.63;;;2.70;;
50900;SDS011;36879;51.416;6.678;2023-03-13T05:07:40;4.72;;;2.60;;
50900;SDS011;36879;51.416;6.678;2023-03-13T05:10:06;5.15;;;2.90;;
50900;SDS011;36879;51.416;6.678;2023-03-13T05:12:32;6.65;;;3.10;;
50900;SDS011;36879;51.416;6.678;2023-03-13T05:14:58;4.85;;;2.95;;
50900;SDS011;36879;51.416;6.678;2023-03-13T05:17:24;5.60;;;3.28;;
50900;SDS011;36879;51.416;6.678;2023-03-13T05:19:50;4.18;;;2.42;;
50900;SDS011;36879;51.416;6.678;2023-03-13T05:22:16;5.30;;;3.05;;
50900;SDS011;36879;51.416;6.678;2023-03-13T05:24:42;6.47;;;3.42;;
50900;SDS011;36879;51.416;6.678;2023-03-13T05:27:08;5.18;;;3.00;;
50900;SDS011;36879;51.416;6.678;2023-03-13T05:29:33;5.60;;;2.65;;
50900;SDS011;36879;51.416;6.678;2023-03-13T05:31:59;5.57;;;3.10;;
50900;SDS011;36879;51.416;6.678;2023-03-13T05:34:25;5.35;;;3.33;;
50900;SDS011;36879;51.416;6.678;2023-03-13T05:36:51;6.85;;;3.85;;
50900;SDS011;36879;51.416;6.678;2023-03-13T05:39:17;5.65;;;3.22;;
50900;SDS011;36879;51.416;6.678;2023-03-13T05:41:43;4.93;;;2.65;;
50900;SDS011;36879;51.416;6.678;2023-03-13T05:44:09;5.90;;;2.80;;
50900;SDS011;36879;51.416;6.678;2023-03-13T05:46:35;6.90;;;3.28;;
50900;SDS011;36879;51.416;6.678;2023-03-13T05:49:01;6.88;;;3.85;;
50900;SDS011;36879;51.416;6.678;2023-03-13T05:51:27;6.50;;;3.60;;
50900;SDS011;36879;51.416;6.678;2023-03-13T05:53:53;8.38;;;3.50;;
50900;SDS011;36879;51.416;6.678;2023-03-13T05:56:19;5.28;;;3.55;;
50900;SDS011;36879;51.416;6.678;2023-03-13T05:58:45;8.23;;;3.20;;
50900;SDS011;36879;51.416;6.678;2023-03-13T06:01:12;6.82;;;2.83;;
50900;SDS011;36879;51.416;6.678;2023-03-13T06:03:38;5.22;;;2.60;;
50900;SDS011;36879;51.416;6.678;2023-03-13T06:06:04;6.43;;;3.55;;
50900;SDS011;36879;51.416;6.678;2023-03-13T06:08:30;4.93;;;2.70;;
50900;SDS011;36879;51.416;6.678;2023-03-13T06:11:00;4.63;;;2.30;;
50900;SDS011;36879;51.416;6.678;2023-03-13T06:13:26;5.43;;;3.03;;
50900;SDS011;36879;51.416;6.678;2023-03-13T06:15:53;5.60;;;2.88;;
50900;SDS011;36879;51.416;6.678;2023-03-13T06:18:19;3.80;;;2.70;;
50900;SDS011;36879;51.416;6.678;2023-03-13T06:20:46;7.35;;;2.75;;
50900;SDS011;36879;51.416;6.678;2023-03-13T06:23:13;4.03;;;2.72;;
50900;SDS011;36879;51.416;6.678;2023-03-13T06:25:38;4.43;;;2.67;;
50900;SDS011;36879;51.416;6.678;2023-03-13T06:28:04;4.95;;;2.80;;
50900;SDS011;36879;51.416;6.678;2023-03-13T06:30:30;6.22;;;2.75;;
50900;SDS011;36879;51.416;6.678;2023-03-13T06:32:57;4.75;;;2.22;;
50900;SDS011;36879;51.416;6.678;2023-03-13T06:35:23;4.82;;;2.25;;
50900;SDS011;36879;51.416;6.678;2023-03-13T06:37:49;4.15;;;2.40;;
50900;SDS011;36879;51.416;6.678;2023-03-13T06:40:15;7.13;;;2.20;;
50900;SDS011;36879;51.416;6.678;2023-03-13T06:42:41;3.85;;;2.30;;
50900;SDS011;36879;51.416;6.678;2023-03-13T06:45:07;3.78;;;2.00;;
50900;SDS011;36879;51.416;6.678;2023-03-13T06:47:33;3.42;;;1.90;;
50900;SDS011;36879;51.416;6.678;2023-03-13T06:49:59;3.97;;;2.30;;
50900;SDS011;36879;51.416;6.678;2023-03-13T06:52:25;4.32;;;2.17;;
50900;SDS011;36879;51.416;6.678;2023-03-13T06:54:51;4.47;;;1.83;;
50900;SDS011;36879;51.416;6.678;2023-03-13T06:57:17;4.78;;;2.10;;
50900;SDS011;36879;51.416;6.678;2023-03-13T06:59:43;3.50;;;1.70;;
50900;SDS011;36879;51.416;6.678;2023-03-13T07:02:12;6.53;;;1.88;;
50900;SDS011;36879;51.416;6.678;2023-03-13T07:04:39;3.58;;;1.92;;
50900;SDS011;36879;51.416;6.678;2023-03-13T07:07:05;8.90;;;2.35;;
50900;SDS011;36879;51.416;6.678;2023-03-13T07:09:31;6.57;;;1.95;;
50900;SDS011;36879;51.416;6.678;2023-03-13T07:11:57;6.88;;;2.97;;
50900;SDS011;36879;51.416;6.678;2023-03-13T07:14:23;6.28;;;2.40;;
50900;SDS011;36879;51.416;6.678;2023-03-13T07:16:49;4.15;;;1.75;;
50900;SDS011;36879;51.416;6.678;2023-03-13T07:19:16;4.28;;;2.08;;
50900;SDS011;36879;51.416;6.678;2023-03-13T07:21:42;4.07;;;2.00;;
50900;SDS011;36879;51.416;6.678;2023-03-13T07:24:08;4.97;;;2.38;;
50900;SDS011;36879;51.416;6.678;2023-03-13T07:26:34;6.13;;;2.05;;
50900;SDS011;36879;51.416;6.678;2023-03-13T07:29:00;6.32;;;1.98;;
50900;SDS011;36879;51.416;6.678;2023-03-13T07:31:26;4.88;;;2.20;;
50900;SDS011;36879;51.416;6.678;2023-03-13T07:33:53;5.75;;;2.10;;
50900;SDS011;36879;51.416;6.678;2023-03-13T07:36:23;8.35;;;2.15;;
50900;SDS011;36879;51.416;6.678;2023-03-13T07:38:49;6.47;;;1.73;;
50900;SDS011;36879;51.416;6.678;2023-03-13T07:41:15;3.15;;;1.40;;
50900;SDS011;36879;51.416;6.678;2023-03-13T07:43:42;3.67;;;2.13;;
50900;SDS011;36879;51.416;6.678;2023-03-13T07:46:10;8.15;;;2.20;;
50900;SDS011;36879;51.416;6.678;2023-03-13T07:48:37;4.63;;;2.25;;
50900;SDS011;36879;51.416;6.678;2023-03-13T07:51:04;3.58;;;1.90;;
50900;SDS011;36879;51.416;6.678;2023-03-13T07:53:31;6.63;;;2.30;;
50900;SDS011;36879;51.416;6.678;2023-03-13T07:55:58;5.22;;;1.95;;
50900;SDS011;36879;51.416;6.678;2023-03-13T07:58:25;6.28;;;1.85;;
50900;SDS011;36879;51.416;6.678;2023-03-13T08:00:52;10.70;;;2.28;;
50900;SDS011;36879;51.416;6.678;2023-03-13T08:03:18;6.47;;;2.30;;
50900;SDS011;36879;51.416;6.678;2023-03-13T08:05:44;6.03;;;1.90;;
50900;SDS011;36879;51.416;6.678;2023-03-13T08:08:10;7.78;;;1.52;;
50900;SDS011;36879;51.416;6.678;2023-03-13T08:10:37;4.07;;;2.60;;
50900;SDS011;36879;51.416;6.678;2023-03-13T08:13:03;3.88;;;2.00;;
50900;SDS011;36879;51.416;6.678;2023-03-13T08:15:29;13.25;;;2.47;;
50900;SDS011;36879;51.416;6.678;2023-03-13T08:17:55;4.57;;;2.10;;
50900;SDS011;36879;51.416;6.678;2023-03-13T08:20:21;3.80;;;1.55;;
50900;SDS011;36879;51.416;6.678;2023-03-13T08:22:47;5.18;;;2.28;;
50900;SDS011;36879;51.416;6.678;2023-03-13T08:25:14;8.05;;;2.17;;
50900;SDS011;36879;51.416;6.678;2023-03-13T08:27:40;5.95;;;1.88;;
50900;SDS011;36879;51.416;6.678;2023-03-13T08:30:07;10.43;;;3.00;;
50900;SDS011;36879;51.416;6.678;2023-03-13T08:32:33;6.40;;;2.30;;
50900;SDS011;36879;51.416;6.678;2023-03-13T08:34:59;5.38;;;2.40;;
50900;SDS011;36879;51.416;6.678;2023-03-13T08:37:25;8.70;;;1.90;;
50900;SDS011;36879;51.416;6.678;2023-03-13T08:39:51;5.03;;;2.05;;
50900;SDS011;36879;51.416;6.678;2023-03-13T08:42:20;5.70;;;1.95;;
50900;SDS011;36879;51.416;6.678;2023-03-13T08:44:46;5.75;;;1.80;;
50900;SDS011;36879;51.416;6.678;2023-03-13T08:47:12;5.63;;;2.00;;
50900;SDS011;36879;51.416;6.678;2023-03-13T08:49:38;4.60;;;1.80;;
50900;SDS011;36879;51.416;6.678;2023-03-13T08:52:04;4.80;;;2.83;;
50900;SDS011;36879;51.416;6.678;2023-03-13T08:54:31;5.75;;;2.45;;
50900;SDS011;36879;51.416;6.678;2023-03-13T08:56:57;6.28;;;2.15;;
50900;SDS011;36879;51.416;6.678;2023-03-13T08:59:24;5.55;;;2.35;;
50900;SDS011;36879;51.416;6.678;2023-03-13T09:01:50;5.13;;;1.92;;
50900;SDS011;36879;51.416;6.678;2023-03-13T09:04:16;5.95;;;2.60;;
50900;SDS011;36879;51.416;6.678;2023-03-13T09:06:42;4.40;;;2.03;;
50900;SDS011;36879;51.416;6.678;2023-03-13T09:09:08;4.53;;;1.75;;
50900;SDS011;36879;51.416;6.678;2023-03-13T09:11:35;4.82;;;1.70;;
50900;SDS011;36879;51.416;6.678;2023-03-13T09:14:01;4.32;;;1.95;;
50900;SDS011;36879;51.416;6.678;2023-03-13T09:16:28;4.55;;;2.05;;
50900;SDS011;36879;51.416;6.678;2023-03-13T09:18:55;6.47;;;2.53;;
50900;SDS011;36879;51.416;6.678;2023-03-13T09:21:22;5.80;;;2.33;;
50900;SDS011;36879;51.416;6.678;2023-03-13T09:23:48;6.72;;;1.95;;
50900;SDS011;36879;51.416;6.678;2023-03-13T09:26:15;7.13;;;2.55;;
50900;SDS011;36879;51.416;6.678;2023-03-13T09:28:42;9.20;;;2.50;;
50900;SDS011;36879;51.416;6.678;2023-03-13T09:31:08;5.07;;;2.30;;
50900;SDS011;36879;51.416;6.678;2023-03-13T09:33:35;5.00;;;1.98;;
50900;SDS011;36879;51.416;6.678;2023-03-13T09:36:01;6.30;;;1.80;;
50900;SDS011;36879;51.416;6.678;2023-03-13T09:38:27;3.55;;;1.80;;
50900;SDS011;36879;51.416;6.678;2023-03-13T09:40:54;4.07;;;1.75;;
50900;SDS011;36879;51.416;6.678;2023-03-13T09:46:05;6.28;;;1.65;;
50900;SDS011;36879;51.416;6.678;2023-03-13T09:48:38;6.15;;;2.00;;
50900;SDS011;36879;51.416;6.678;2023-03-13T09:51:20;5.85;;;2.15;;
50900;SDS011;36879;51.416;6.678;2023-03-13T09:53:51;8.27;;;2.13;;
50900;SDS011;36879;51.416;6.678;2023-03-13T09:56:19;4.13;;;1.80;;
50900;SDS011;36879;51.416;6.678;2023-03-13T09:58:56;5.53;;;1.80;;
50900;SDS011;36879;51.416;6.678;2023-03-13T10:01:25;4.35;;;2.22;;
50900;SDS011;36879;51.416;6.678;2023-03-13T10:03:57;8.60;;;1.83;;
50900;SDS011;36879;51.416;6.678;2023-03-13T10:06:27;3.38;;;1.63;;
50900;SDS011;36879;51.416;6.678;2023-03-13T10:08:56;3.03;;;1.48;;
50900;SDS011;36879;51.416;6.678;2023-03-13T10:11:37;5.47;;;1.70;;
50900;SDS011;36879;51.416;6.678;2023-03-13T10:14:16;7.00;;;3.20;;
50900;SDS011;36879;51.416;6.678;2023-03-13T10:16:46;5.60;;;2.00;;
50900;SDS011;36879;51.416;6.678;2023-03-13T10:19:15;4.60;;;1.50;;
50900;SDS011;36879;51.416;6.678;2023-03-13T10:21:42;3.15;;;1.80;;
50900;SDS011;36879;51.416;6.678;2023-03-13T10:24:17;3.20;;;2.05;;
50900;SDS011;36879;51.416;6.678;2023-03-13T10:26:45;3.42;;;1.70;;
50900;SDS011;36879;51.416;6.678;2023-03-13T10:29:24;5.35;;;1.48;;
50900;SDS011;36879;51.416;6.678;2023-03-13T10:32:00;5.18;;;1.60;;
50900;SDS011;36879;51.416;6.678;2023-03-13T10:34:27;3.50;;;2.10;;
50900;SDS011;36879;51.416;6.678;2023-03-13T10:36:54;5.80;;;1.50;;
50900;SDS011;36879;51.416;6.678;2023-03-13T10:39:23;5.97;;;1.33;;
50900;SDS011;36879;51.416;6.678;2023-03-13T10:41:49;3.88;;;1.20;;
50900;SDS011;36879;51.416;6.678;2023-03-13T10:44:20;3.50;;;1.50;;
50900;SDS011;36879;51.416;6.678;2023-03-13T10:46:47;9.43;;;1.65;;
50900;SDS011;36879;51.416;6.678;2023-03-13T10:51:40;3.38;;;1.25;;
50900;SDS011;36879;51.416;6.678;2023-03-13T10:56:41;2.60;;;1.50;;
50900;SDS011;36879;51.416;6.678;2023-03-13T10:59:17;2.55;;;1.20;;
50900;SDS011;36879;51.416;6.678;2023-03-13T11:01:45;1.85;;;0.95;;
50900;SDS011;36879;51.416;6.678;2023-03-13T11:04:45;2.00;;;1.10;;
50900;SDS011;36879;51.416;6.678;2023-03-13T11:07:05;2.05;;;1.00;;
50900;SDS011;36879;51.416;6.678;2023-03-13T11:09:37;2.25;;;1.40;;
50900;SDS011;36879;51.416;6.678;2023-03-13T11:12:04;2.13;;;1.30;;
50900;SDS011;36879;51.416;6.678;2023-03-13T11:14:31;4.15;;;1.55;;
50900;SDS011;36879;51.416;6.678;2023-03-13T11:17:08;2.63;;;1.20;;
50900;SDS011;36879;51.416;6.678;2023-03-13T11:24:42;1.80;;;0.80;;
50900;SDS011;36879;51.416;6.678;2023-03-13T11:27:22;4.20;;;1.20;;
50900;SDS011;36879;51.416;6.678;2023-03-13T11:30:00;4.00;;;0.82;;
50900;SDS011;36879;51.416;6.678;2023-03-13T11:32:32;2.13;;;1.20;;
50900;SDS011;36879;51.416;6.678;2023-03-13T11:35:01;1.40;;;1.00;;
50900;SDS011;36879;51.416;6.678;2023-03-13T11:37:30;1.60;;;1.10;;
50900;SDS011;36879;51.416;6.678;2023-03-13T11:40:19;3.55;;;1.35;;
50900;SDS011;36879;51.416;6.678;2023-03-13T11:48:03;2.08;;;0.90;;
50900;SDS011;36879;51.416;6.678;2023-03-13T11:50:40;1.13;;;0.55;;
50900;SDS011;36879;51.416;6.678;2023-03-13T11:53:11;4.47;;;1.00;;
50900;SDS011;36879;51.416;6.678;2023-03-13T12:00:40;4.43;;;0.80;;
50900;SDS011;36879;51.416;6.678;2023-03-13T12:03:11;1.25;;;0.65;;
50900;SDS011;36879;51.416;6.678;2023-03-13T12:05:41;1.00;;;0.70;;
50900;SDS011;36879;51.416;6.678;2023-03-13T12:08:33;2.10;;;0.98;;
50900;SDS011;36879;51.416;6.678;2023-03-13T12:13:24;1.13;;;0.60;;
50900;SDS011;36879;51.416;6.678;2023-03-13T12:15:53;1.58;;;0.73;;
50900;SDS011;36879;51.416;6.678;2023-03-13T12:18:27;1.10;;;0.70;;
50900;SDS011;36879;51.416;6.678;2023-03-13T12:26:15;1.45;;;0.80;;
50900;SDS011;36879;51.416;6.678;2023-03-13T12:28:47;4.60;;;0.98;;
50900;SDS011;36879;51.416;6.678;2023-03-13T12:36:32;3.15;;;0.55;;
50900;SDS011;36879;51.416;6.678;2023-03-13T12:39:05;1.92;;;0.90;;
50900;SDS011;36879;51.416;6.678;2023-03-13T12:41:42;1.17;;;0.68;;
50900;SDS011;36879;51.416;6.678;2023-03-13T12:44:17;2.72;;;0.82;;
50900;SDS011;36879;51.416;6.678;2023-03-13T12:46:47;2.55;;;0.68;;
50900;SDS011;36879;51.416;6.678;2023-03-13T12:49:26;2.47;;;0.70;;
50900;SDS011;36879;51.416;6.678;2023-03-13T12:52:08;2.05;;;0.70;;
50900;SDS011;36879;51.416;6.678;2023-03-13T12:54:44;0.40;;;0.40;;
50900;SDS011;36879;51.416;6.678;2023-03-13T12:57:21;1.90;;;0.85;;
50900;SDS011;36879;51.416;6.678;2023-03-13T12:59:54;0.93;;;0.52;;
50900;SDS011;36879;51.416;6.678;2023-03-13T13:02:23;1.00;;;0.65;;
50900;SDS011;36879;51.416;6.678;2023-03-13T13:04:50;1.20;;;0.68;;
50900;SDS011;36879;51.416;6.678;2023-03-13T13:07:28;2.22;;;0.73;;
50900;SDS011;36879;51.416;6.678;2023-03-13T13:15:45;2.83;;;0.85;;
50900;SDS011;36879;51.416;6.678;2023-03-13T13:18:15;1.85;;;0.50;;
50900;SDS011;36879;51.416;6.678;2023-03-13T13:21:34;0.90;;;0.60;;
50900;SDS011;36879;51.416;6.678;2023-03-13T13:36:56;1.38;;;0.85;;
50900;SDS011;36879;51.416;6.678;2023-03-13T13:42:26;2.35;;;0.80;;
50900;SDS011;36879;51.416;6.678;2023-03-13T13:47:20;2.28;;;0.98;;
50900;SDS011;36879;51.416;6.678;2023-03-13T13:49:54;1.92;;;1.02;;
50900;SDS011;36879;51.416;6.678;2023-03-13T13:52:39;2.50;;;0.82;;
50900;SDS011;36879;51.416;6.678;2023-03-13T13:58:04;2.38;;;0.90;;
50900;SDS011;36879;51.416;6.678;2023-03-13T14:00:38;1.10;;;0.60;;
50900;SDS011;36879;51.416;6.678;2023-03-13T14:03:18;2.22;;;0.80;;
50900;SDS011;36879;51.416;6.678;2023-03-13T14:05:44;1.88;;;1.27;;
50900;SDS011;36879;51.416;6.678;2023-03-13T14:10:44;1.67;;;0.70;;
50900;SDS011;36879;51.416;6.678;2023-03-13T14:20:37;1.48;;;0.70;;
50900;SDS011;36879;51.416;6.678;2023-03-13T14:23:05;1.30;;;0.73;;
50900;SDS011;36879;51.416;6.678;2023-03-13T14:25:44;1.08;;;0.80;;
50900;SDS011;36879;51.416;6.678;2023-03-13T14:28:21;2.55;;;0.80;;
50900;SDS011;36879;51.416;6.678;2023-03-13T14:30:48;3.97;;;1.10;;
50900;SDS011;36879;51.416;6.678;2023-03-13T14:33:15;1.63;;;0.82;;
50900;SDS011;36879;51.416;6.678;2023-03-13T14:35:41;2.00;;;0.93;;
50900;SDS011;36879;51.416;6.678;2023-03-13T14:38:14;2.53;;;0.93;;
50900;SDS011;36879;51.416;6.678;2023-03-13T14:40:40;1.42;;;0.88;;
50900;SDS011;36879;51.416;6.678;2023-03-13T14:43:15;1.80;;;1.00;;
50900;SDS011;36879;51.416;6.678;2023-03-13T14:45:42;7.55;;;1.10;;
50900;SDS011;36879;51.416;6.678;2023-03-13T14:48:17;2.47;;;1.35;;
50900;SDS011;36879;51.416;6.678;2023-03-13T14:50:44;1.38;;;0.77;;
50900;SDS011;36879;51.416;6.678;2023-03-13T14:53:11;3.90;;;0.82;;
50900;SDS011;36879;51.416;6.678;2023-03-13T14:55:38;1.17;;;0.60;;
50900;SDS011;36879;51.416;6.678;2023-03-13T15:06:05;2.00;;;1.00;;
50900;SDS011;36879;51.416;6.678;2023-03-13T15:08:32;3.75;;;0.98;;
50900;SDS011;36879;51.416;6.678;2023-03-13T15:10:59;3.75;;;1.13;;
50900;SDS011;36879;51.416;6.678;2023-03-13T15:13:27;1.73;;;0.90;;
50900;SDS011;36879;51.416;6.678;2023-03-13T15:15:57;1.05;;;0.70;;
50900;SDS011;36879;51.416;6.678;2023-03-13T15:18:31;4.10;;;0.90;;
50900;SDS011;36879;51.416;6.678;2023-03-13T15:20:58;1.98;;;1.10;;
50900;SDS011;36879;51.416;6.678;2023-03-13T15:23:24;1.23;;;0.75;;
50900;SDS011;36879;51.416;6.678;2023-03-13T15:25:50;1.65;;;0.77;;
50900;SDS011;36879;51.416;6.678;2023-03-13T15:28:21;2.72;;;1.17;;
50900;SDS011;36879;51.416;6.678;2023-03-13T15:30:48;1.98;;;1.30;;
50900;SDS011;36879;51.416;6.678;2023-03-13T15:33:15;1.00;;;0.80;;
50900;SDS011;36879;51.416;6.678;2023-03-13T15:35:42;1.80;;;0.98;;
50900;SDS011;36879;51.416;6.678;2023-03-13T15:38:12;2.80;;;0.90;;
50900;SDS011;36879;51.416;6.678;2023-03-13T15:40:38;1.45;;;0.90;;
50900;SDS011;36879;51.416;6.678;2023-03-13T15:43:04;2.80;;;0.98;;
50900;SDS011;36879;51.416;6.678;2023-03-13T15:45:31;1.17;;;0.80;;
50900;SDS011;36879;51.416;6.678;2023-03-13T15:47:57;2.65;;;0.98;;
50900;SDS011;36879;51.416;6.678;2023-03-13T15:50:23;3.90;;;0.85;;
50900;SDS011;36879;51.416;6.678;2023-03-13T15:52:54;2.15;;;0.82;;
50900;SDS011;36879;51.416;6.678;2023-03-13T15:55:20;1.00;;;0.90;;
50900;SDS011;36879;51.416;6.678;2023-03-13T15:57:48;4.85;;;1.20;;
50900;SDS011;36879;51.416;6.678;2023-03-13T16:00:15;1.33;;;0.90;;
50900;SDS011;36879;51.416;6.678;2023-03-13T16:02:43;3.78;;;0.93;;
50900;SDS011;36879;51.416;6.678;2023-03-13T16:05:09;4.30;;;0.95;;
50900;SDS011;36879;51.416;6.678;2023-03-13T16:07:35;2.00;;;1.30;;
50900;SDS011;36879;51.416;6.678;2023-03-13T16:10:01;4.57;;;0.88;;
50900;SDS011;36879;51.416;6.678;2023-03-13T16:12:27;3.67;;;1.10;;
50900;SDS011;36879;51.416;6.678;2023-03-13T16:14:53;2.45;;;1.90;;
50900;SDS011;36879;51.416;6.678;2023-03-13T16:17:19;2.45;;;1.30;;
50900;SDS011;36879;51.416;6.678;2023-03-13T16:19:46;1.45;;;0.82;;
50900;SDS011;36879;51.416;6.678;2023-03-13T16:22:13;2.42;;;1.08;;
50900;SDS011;36879;51.416;6.678;2023-03-13T16:24:39;3.10;;;1.20;;
50900;SDS011;36879;51.416;6.678;2023-03-13T16:27:15;1.98;;;1.02;;